Time;durP1;ratioP1;P1;durP2;ratioP2;P2;SDS_P1;SDS_P2;PMS_P1;PMS_P2;Temp;Humidity;BMP_temperature;BMP_pressure;BME280_temperature;BME280_humidity;BME280_pressure;Samples;Min_cycle;Max_cycle;Signal;HPM_P1;HPM_P2
2021/01/28 00:02:22;;;;;;;0.53;0.53;;;5.00;99.90;;;;;;4980660;28;20286;-88
2021/01/28 00:04:48;;;;;;;1.70;1.30;;;5.00;99.90;;;;;;4941645;28;20348;-88
2021/01/28 00:07:13;;;;;;;3.50;1.40;;;4.90;99.90;;;;;;4965896;28;20657;-86
2021/01/28 00:09:39;;;;;;;1.73;0.87;;;4.80;99.90;;;;;;4983588;28;20184;-86
2021/01/28 00:12:05;;;;;;;1.87;0.80;;;4.80;99.90;;;;;;4946691;28;20240;-86
2021/01/28 00:14:31;;;;;;;1.97;0.67;;;4.70;99.90;;;;;;4981894;28;20232;-89
2021/01/28 00:16:56;;;;;;;0.83;0.83;;;4.70;99.90;;;;;;4981423;28;20254;-85
2021/01/28 00:19:22;;;;;;;1.13;1.03;;;4.70;99.90;;;;;;4981810;28;20211;-86
2021/01/28 00:21:48;;;;;;;5.23;1.20;;;4.70;99.90;;;;;;4965725;28;20192;-87
2021/01/28 00:24:14;;;;;;;0.87;0.87;;;4.60;99.90;;;;;;4964881;28;20220;-86
2021/01/28 00:26:40;;;;;;;0.83;0.83;;;4.60;99.90;;;;;;4963950;28;21051;-88
2021/01/28 00:29:06;;;;;;;0.50;0.50;;;4.60;99.90;;;;;;4964336;28;20293;-86
2021/01/28 00:31:32;;;;;;;0.93;0.93;;;4.60;99.90;;;;;;4948407;28;20237;-85
2021/01/28 00:33:58;;;;;;;0.63;0.53;;;4.60;99.90;;;;;;4965852;28;20199;-88
2021/01/28 00:36:24;;;;;;;1.47;1.37;;;4.50;99.90;;;;;;4964979;28;20240;-86
2021/01/28 00:38:49;;;;;;;0.87;0.57;;;4.50;99.90;;;;;;4965185;28;20335;-88
2021/01/28 00:41:16;;;;;;;1.60;1.37;;;4.40;99.90;;;;;;4964695;28;20234;-85
2021/01/28 00:43:41;;;;;;;5.70;0.70;;;4.40;99.90;;;;;;4964080;28;20720;-88
2021/01/28 00:46:07;;;;;;;0.80;0.73;;;4.40;99.90;;;;;;4964821;28;20291;-87
2021/01/28 00:48:33;;;;;;;0.47;0.47;;;4.40;99.90;;;;;;4965305;28;20196;-86
2021/01/28 00:51:00;;;;;;;2.53;1.70;;;4.40;99.90;;;;;;4981579;28;20608;-90
2021/01/28 00:53:26;;;;;;;0.53;0.53;;;4.30;99.90;;;;;;4981706;28;20234;-87
2021/01/28 00:55:53;;;;;;;0.77;0.60;;;4.30;99.90;;;;;;4948370;28;20228;-86
2021/01/28 00:58:21;;;;;;;1.17;0.70;;;4.30;99.90;;;;;;4980331;28;20826;-89
2021/01/28 01:00:48;;;;;;;1.33;1.33;;;4.30;99.90;;;;;;4982299;28;20199;-89
2021/01/28 01:03:17;;;;;;;1.47;1.40;;;4.30;99.90;;;;;;4980317;28;20228;-90
2021/01/28 01:05:44;;;;;;;0.57;0.57;;;4.30;99.90;;;;;;4981737;28;20362;-86
2021/01/28 01:08:22;;;;;;;0.90;0.90;;;4.30;99.90;;;;;;4982269;28;20223;-87
2021/01/28 01:10:54;;;;;;;0.73;0.73;;;4.30;99.90;;;;;;4962560;28;20244;-86
2021/01/28 01:13:25;;;;;;;0.60;0.60;;;4.40;99.90;;;;;;4963406;28;20279;-87
2021/01/28 01:15:52;;;;;;;0.80;0.80;;;4.30;99.90;;;;;;4965287;28;20184;-86
2021/01/28 01:18:22;;;;;;;0.67;0.67;;;4.40;99.90;;;;;;4981583;28;20227;-86
2021/01/28 01:20:48;;;;;;;0.53;0.53;;;4.30;99.90;;;;;;4980954;28;21210;-88
2021/01/28 01:23:14;;;;;;;0.90;0.90;;;4.30;99.90;;;;;;4981260;28;20231;-87
2021/01/28 01:25:40;;;;;;;0.70;0.70;;;4.30;99.90;;;;;;4947216;28;20247;-85
2021/01/28 01:28:06;;;;;;;1.60;0.97;;;4.40;99.90;;;;;;4960881;28;20902;-84
2021/01/28 01:30:33;;;;;;;0.50;0.50;;;4.40;99.90;;;;;;4978813;28;20220;-90
2021/01/28 01:32:58;;;;;;;1.90;1.70;;;4.50;99.90;;;;;;4961134;28;20232;-86
2021/01/28 01:35:24;;;;;;;0.97;0.97;;;4.40;99.90;;;;;;4961138;28;20567;-89
2021/01/28 01:37:51;;;;;;;1.00;0.80;;;4.40;99.90;;;;;;4980261;28;20223;-88
2021/01/28 01:40:22;;;;;;;0.93;0.93;;;4.40;99.90;;;;;;4962242;28;20192;-86
2021/01/28 01:42:48;;;;;;;0.50;0.50;;;4.30;99.90;;;;;;4981182;28;20215;-86
2021/01/28 01:45:27;;;;;;;5.70;1.03;;;4.20;99.90;;;;;;4978864;28;20266;-86
2021/01/28 01:48:01;;;;;;;0.97;0.97;;;4.10;99.90;;;;;;4961191;28;20211;-85
2021/01/28 01:50:35;;;;;;;0.67;0.67;;;4.00;99.90;;;;;;4962573;28;20234;-86
2021/01/28 01:53:03;;;;;;;18.67;0.80;;;3.80;99.90;;;;;;4979877;28;20219;-86
2021/01/28 01:55:31;;;;;;;0.83;0.80;;;3.60;99.90;;;;;;4963218;28;20768;-89
2021/01/28 01:58:00;;;;;;;1.30;0.97;;;3.70;99.90;;;;;;4980085;28;20220;-87
2021/01/28 02:00:26;;;;;;;1.17;1.07;;;3.70;99.90;;;;;;4978979;28;20601;-88
2021/01/28 02:02:58;;;;;;;1.27;1.27;;;3.80;99.90;;;;;;4948417;28;20220;-86
2021/01/28 02:05:26;;;;;;;0.60;0.60;;;3.80;99.90;;;;;;4963744;28;20310;-86
2021/01/28 02:07:52;;;;;;;0.47;0.47;;;3.70;99.90;;;;;;4979555;28;20237;-87
2021/01/28 02:10:19;;;;;;;0.73;0.73;;;3.70;99.90;;;;;;4979346;28;20200;-86
2021/01/28 02:12:45;;;;;;;2.73;1.23;;;3.70;99.90;;;;;;4982767;28;20180;-88
2021/01/28 02:15:12;;;;;;;1.30;1.20;;;3.70;99.90;;;;;;4963821;28;21008;-89
2021/01/28 02:17:41;;;;;;;0.60;0.60;;;3.60;99.90;;;;;;4981386;28;20591;-87
2021/01/28 02:20:35;;;;;;;0.87;0.70;;;3.50;99.90;;;;;;4963086;28;20215;-89
2021/01/28 02:23:08;;;;;;;3.63;1.10;;;3.40;99.90;;;;;;4980331;28;20216;-86
2021/01/28 02:25:36;;;;;;;0.43;0.43;;;3.40;99.90;;;;;;4964038;28;20224;-88
2021/01/28 02:28:04;;;;;;;4.80;0.87;;;3.40;99.90;;;;;;4963940;28;20547;-87
2021/01/28 02:30:32;;;;;;;2.53;0.83;;;3.50;99.90;;;;;;4980489;28;20228;-86
2021/01/28 02:32:58;;;;;;;0.90;0.90;;;3.40;99.90;;;;;;4979682;28;20681;-86
2021/01/28 02:35:28;;;;;;;1.47;1.37;;;3.50;99.90;;;;;;4962840;28;20216;-89
2021/01/28 02:37:55;;;;;;;1.17;1.07;;;3.50;99.90;;;;;;4979900;28;20286;-87
2021/01/28 02:40:23;;;;;;;19.10;1.70;;;3.50;99.90;;;;;;4946702;28;20226;-88
2021/01/28 02:42:49;;;;;;;0.70;0.70;;;3.40;99.90;;;;;;4981693;28;20192;-89
2021/01/28 02:45:18;;;;;;;10.83;1.17;;;3.10;99.90;;;;;;4979283;28;20223;-86
2021/01/28 02:47:53;;;;;;;0.67;0.67;;;2.90;99.90;;;;;;4961088;28;20633;-86
2021/01/28 02:50:20;;;;;;;0.50;0.50;;;2.90;99.90;;;;;;4979107;28;20787;-89
2021/01/28 02:52:46;;;;;;;1.13;1.13;;;3.00;99.90;;;;;;4978922;28;20689;-88
2021/01/28 02:55:13;;;;;;;0.63;0.63;;;3.00;99.90;;;;;;4947522;28;20200;-88
2021/01/28 02:57:39;;;;;;;1.53;1.37;;;3.00;99.90;;;;;;4965427;28;20231;-87
2021/01/28 03:00:12;;;;;;;0.60;0.60;;;2.90;99.90;;;;;;4982571;28;20227;-86
2021/01/28 03:02:38;;;;;;;0.40;0.27;;;3.00;99.90;;;;;;4984101;28;20219;-87
2021/01/28 03:05:05;;;;;;;1.23;1.23;;;3.10;99.90;;;;;;4965260;28;20224;-86
2021/01/28 03:07:31;;;;;;;1.17;1.07;;;3.10;99.90;;;;;;4965608;28;20223;-88
2021/01/28 03:09:57;;;;;;;13.83;1.50;;;3.10;99.90;;;;;;4981967;28;20266;-86
2021/01/28 03:12:23;;;;;;;0.43;0.43;;;3.00;99.90;;;;;;4948808;28;20338;-88
2021/01/28 03:14:48;;;;;;;0.30;0.30;;;2.80;99.90;;;;;;4964579;28;20625;-89
2021/01/28 03:17:14;;;;;;;0.97;0.67;;;2.70;99.90;;;;;;4983262;28;20982;-86
2021/01/28 03:19:40;;;;;;;0.50;0.50;;;2.60;99.90;;;;;;4965815;28;20223;-87
2021/01/28 03:22:05;;;;;;;0.67;0.67;;;2.40;99.90;;;;;;4951376;28;20188;-87
2021/01/28 03:24:31;;;;;;;0.60;0.60;;;2.40;99.90;;;;;;4967203;28;20196;-89
2021/01/28 03:26:57;;;;;;;0.50;0.50;;;2.30;99.90;;;;;;4926740;28;20630;-86
2021/01/28 03:29:23;;;;;;;0.23;0.23;;;2.20;99.90;;;;;;4950432;28;20334;-86
2021/01/28 03:31:48;;;;;;;0.57;0.57;;;2.10;99.90;;;;;;4965210;28;20240;-88
2021/01/28 03:34:14;;;;;;;1.27;0.57;;;2.20;99.90;;;;;;4950161;28;20195;-86
2021/01/28 03:36:41;;;;;;;0.30;0.30;;;2.20;99.90;;;;;;4967173;28;20242;-86
2021/01/28 03:39:06;;;;;;;0.30;0.30;;;2.30;99.90;;;;;;4965176;28;20233;-87
2021/01/28 03:41:32;;;;;;;1.60;0.70;;;2.30;99.90;;;;;;4981542;28;20224;-86
2021/01/28 03:43:58;;;;;;;0.30;0.30;;;2.40;99.90;;;;;;4949557;28;21026;-88
2021/01/28 03:46:24;;;;;;;0.70;0.60;;;2.50;99.90;;;;;;4965649;28;20192;-89
2021/01/28 03:48:50;;;;;;;0.50;0.50;;;2.60;99.90;;;;;;4951454;28;20189;-88
2021/01/28 03:51:15;;;;;;;1.07;1.07;;;2.80;99.90;;;;;;4983392;28;20247;-87
2021/01/28 03:53:41;;;;;;;0.87;0.67;;;2.80;99.90;;;;;;4966385;28;20228;-87
2021/01/28 03:56:07;;;;;;;25.07;0.67;;;2.80;99.90;;;;;;4949676;28;20993;-89
2021/01/28 03:58:32;;;;;;;0.50;0.33;;;2.60;99.90;;;;;;4965070;28;20314;-85
2021/01/28 04:00:58;;;;;;;2.33;0.60;;;2.40;99.90;;;;;;4966057;28;20196;-86
2021/01/28 04:03:24;;;;;;;0.53;0.53;;;2.30;99.90;;;;;;4965607;28;20212;-88
2021/01/28 04:05:50;;;;;;;0.73;0.73;;;2.20;99.90;;;;;;4982825;28;20286;-88
2021/01/28 04:08:15;;;;;;;3.13;0.73;;;2.20;99.90;;;;;;4948823;28;20269;-89
2021/01/28 04:10:41;;;;;;;0.30;0.30;;;2.10;99.90;;;;;;4963207;28;20243;-86
2021/01/28 04:13:07;;;;;;;0.97;0.97;;;2.10;99.90;;;;;;4964522;28;20712;-87
2021/01/28 04:15:34;;;;;;;0.50;0.50;;;2.30;99.90;;;;;;4966846;28;20188;-86
2021/01/28 04:18:00;;;;;;;0.77;0.77;;;2.50;99.90;;;;;;4982199;28;21226;-89
2021/01/28 04:20:30;;;;;;;0.40;0.40;;;2.60;99.90;;;;;;4981455;28;20531;-90
2021/01/28 04:22:57;;;;;;;0.43;0.43;;;2.70;99.90;;;;;;4965061;28;20220;-86
2021/01/28 04:25:23;;;;;;;0.60;0.40;;;2.80;99.90;;;;;;4982481;28;20192;-87
2021/01/28 04:27:49;;;;;;;0.63;0.33;;;3.00;99.90;;;;;;4950224;28;20457;-88
2021/01/28 04:30:28;;;;;;;0.60;0.60;;;3.10;99.90;;;;;;4981849;28;20915;-89
2021/01/28 04:32:55;;;;;;;1.40;1.30;;;3.20;99.90;;;;;;4964291;28;20227;-90
2021/01/28 04:35:21;;;;;;;1.00;1.00;;;3.30;99.90;;;;;;4964881;28;20215;-86
2021/01/28 04:37:47;;;;;;;2.23;1.00;;;3.40;99.90;;;;;;4947225;28;20235;-88
2021/01/28 04:40:39;;;;;;;1.10;1.03;;;3.50;99.90;;;;;;4964344;28;20195;-89
2021/01/28 04:43:15;;;;;;;2.23;1.20;;;3.60;99.90;;;;;;4957147;28;20199;-84
2021/01/28 04:45:41;;;;;;;4.93;0.63;;;3.60;99.90;;;;;;4964650;28;20215;-90
2021/01/28 04:48:09;;;;;;;1.13;1.03;;;3.30;99.90;;;;;;4964107;28;20246;-86
2021/01/28 04:50:37;;;;;;;1.00;0.93;;;3.00;99.90;;;;;;4980318;28;20243;-86
2021/01/28 04:53:39;;;;;;;7.80;1.23;;;2.70;99.90;;;;;;4981776;28;20242;-88
2021/01/28 04:56:10;;;;;;;1.17;0.83;;;2.70;99.90;;;;;;4955908;28;20293;-86
2021/01/28 04:58:36;;;;;;;0.57;0.57;;;2.60;99.90;;;;;;4963787;28;20282;-89
2021/01/28 05:01:03;;;;;;;0.90;0.90;;;2.60;99.90;;;;;;4980779;28;20676;-86
2021/01/28 05:03:34;;;;;;;0.77;0.77;;;2.70;99.90;;;;;;4947886;28;20239;-88
2021/01/28 05:06:00;;;;;;;1.13;0.60;;;2.70;99.90;;;;;;4964148;28;20669;-86
2021/01/28 05:08:26;;;;;;;0.90;0.80;;;2.70;99.90;;;;;;4964239;28;20216;-89
2021/01/28 05:10:56;;;;;;;0.90;0.90;;;2.70;99.90;;;;;;4962534;28;20231;-89
2021/01/28 05:13:36;;;;;;;1.07;1.00;;;2.70;99.90;;;;;;4981243;28;20185;-88
2021/01/28 05:16:25;;;;;;;1.40;1.30;;;2.70;99.90;;;;;;4981447;28;20203;-87
2021/01/28 05:18:58;;;;;;;0.67;0.67;;;2.80;99.90;;;;;;4964219;28;20224;-90
2021/01/28 05:21:27;;;;;;;0.90;0.50;;;2.80;99.90;;;;;;4980036;28;20216;-89
2021/01/28 05:24:05;;;;;;;1.00;0.90;;;2.90;99.90;;;;;;4964103;28;20231;-85
2021/01/28 05:26:43;;;;;;;1.33;0.83;;;2.90;99.90;;;;;;4964414;28;20230;-86
2021/01/28 05:29:29;;;;;;;1.10;1.10;;;3.10;99.90;;;;;;4980928;28;20231;-88
2021/01/28 05:31:59;;;;;;;1.07;0.87;;;3.10;99.90;;;;;;4980273;28;20228;-89
2021/01/28 05:34:30;;;;;;;1.23;0.70;;;3.10;99.90;;;;;;4952733;28;20180;-86
2021/01/28 05:37:05;;;;;;;0.93;0.80;;;3.10;99.90;;;;;;4964585;28;20191;-88
2021/01/28 05:39:39;;;;;;;1.23;1.10;;;2.90;99.90;;;;;;4981102;28;20223;-87
2021/01/28 05:42:12;;;;;;;1.57;0.50;;;2.90;99.90;;;;;;4962919;28;20219;-90
2021/01/28 05:44:39;;;;;;;0.47;0.40;;;2.90;99.90;;;;;;4979653;28;20216;-87
2021/01/28 05:47:19;;;;;;;0.83;0.63;;;2.90;99.90;;;;;;4962704;28;20230;-89
2021/01/28 05:49:46;;;;;;;1.33;0.63;;;3.00;99.90;;;;;;4963031;28;20216;-87
2021/01/28 05:52:30;;;;;;;0.47;0.47;;;3.00;99.90;;;;;;4962464;28;20653;-86
2021/01/28 05:55:11;;;;;;;0.30;0.30;;;3.00;99.90;;;;;;4964727;28;20188;-89
2021/01/28 05:57:48;;;;;;;1.93;1.23;;;2.90;99.90;;;;;;4978838;28;20251;-87
2021/01/28 06:00:21;;;;;;;1.57;1.20;;;3.00;99.90;;;;;;4962501;28;20223;-87
2021/01/28 06:03:21;;;;;;;0.30;0.30;;;3.00;99.90;;;;;;4963566;28;20239;-88
2021/01/28 06:06:16;;;;;;;1.30;1.20;;;2.90;99.90;;;;;;4960474;28;20294;-88
2021/01/28 06:09:11;;;;;;;0.83;0.80;;;2.90;99.90;;;;;;4959641;28;20216;-86
2021/01/28 06:11:49;;;;;;;0.70;0.70;;;2.90;99.90;;;;;;4951755;28;20251;-89
2021/01/28 06:14:27;;;;;;;0.87;0.87;;;2.80;99.90;;;;;;4981151;28;20230;-86
2021/01/28 06:17:04;;;;;;;1.83;0.97;;;2.80;99.90;;;;;;4981359;28;20219;-89
2021/01/28 06:19:48;;;;;;;0.97;0.93;;;2.70;99.90;;;;;;4981417;28;20235;-86
2021/01/28 06:22:43;;;;;;;1.23;0.83;;;2.70;99.90;;;;;;4963502;28;20292;-86
2021/01/28 06:25:28;;;;;;;0.60;0.60;;;2.90;99.90;;;;;;4928315;28;20208;-88
2021/01/28 06:28:18;;;;;;;1.50;0.83;;;3.20;99.90;;;;;;4964820;28;20263;-86
2021/01/28 06:30:50;;;;;;;1.20;1.20;;;3.20;99.90;;;;;;4979989;28;20243;-86
2021/01/28 06:33:30;;;;;;;1.37;0.93;;;3.20;99.90;;;;;;4983564;28;20223;-89
2021/01/28 06:36:15;;;;;;;1.23;1.10;;;3.10;99.90;;;;;;4967236;28;20751;-89
2021/01/28 06:39:08;;;;;;;0.53;0.53;;;3.10;99.90;;;;;;4967662;28;20220;-88
2021/01/28 06:41:40;;;;;;;1.50;1.37;;;3.00;99.90;;;;;;4967106;28;20227;-86
2021/01/28 06:44:21;;;;;;;1.20;1.10;;;3.00;99.90;;;;;;4983620;28;20227;-85
2021/01/28 06:47:05;;;;;;;1.40;1.30;;;2.90;99.90;;;;;;4983421;28;20216;-86
2021/01/28 06:49:36;;;;;;;0.73;0.73;;;2.90;99.90;;;;;;4982960;28;20216;-86
2021/01/28 06:52:20;;;;;;;0.30;0.30;;;2.90;99.90;;;;;;4967709;28;20192;-88
2021/01/28 06:54:57;;;;;;;0.70;0.70;;;2.90;99.90;;;;;;4980569;28;20279;-88
2021/01/28 06:57:34;;;;;;;1.00;1.00;;;2.90;99.90;;;;;;4967041;28;20222;-89
2021/01/28 07:00:19;;;;;;;1.67;0.77;;;3.00;99.90;;;;;;4976233;28;21271;-88
2021/01/28 07:03:01;;;;;;;0.80;0.80;;;3.10;99.90;;;;;;4953334;28;20233;-87
2021/01/28 07:06:02;;;;;;;0.70;0.50;;;3.10;99.90;;;;;;4943736;29;20224;-86
2021/01/28 07:08:31;;;;;;;0.83;0.50;;;3.10;99.90;;;;;;4944882;28;20219;-90
2021/01/28 07:10:57;;;;;;;0.90;0.90;;;3.10;99.90;;;;;;4957719;28;20247;-89
2021/01/28 07:13:29;;;;;;;1.10;1.00;;;3.10;99.90;;;;;;4917716;28;20256;-87
2021/01/28 07:16:30;;;;;;;1.73;1.60;;;3.10;99.90;;;;;;4977677;28;20236;-88
2021/01/28 07:19:20;;;;;;;0.63;0.40;;;3.20;99.90;;;;;;4974025;28;20271;-86
2021/01/28 07:21:49;;;;;;;0.40;0.40;;;3.20;99.90;;;;;;4942223;29;20217;-91
2021/01/28 07:24:29;;;;;;;1.03;1.00;;;3.20;99.90;;;;;;4943572;28;20743;-87
2021/01/28 07:27:05;;;;;;;2.07;1.50;;;3.20;99.90;;;;;;4974913;28;20300;-88
2021/01/28 07:29:30;;;;;;;0.50;0.50;;;3.10;99.90;;;;;;4943955;28;21182;-87
2021/01/28 07:31:58;;;;;;;1.83;1.73;;;3.20;99.90;;;;;;4934338;28;20240;-87
2021/01/28 07:34:24;;;;;;;0.97;0.93;;;3.20;99.90;;;;;;4943920;28;21078;-88
2021/01/28 07:36:58;;;;;;;1.50;1.27;;;3.30;99.90;;;;;;4944466;29;20178;-87
2021/01/28 07:39:31;;;;;;;1.70;1.47;;;3.30;99.90;;;;;;4944484;28;20231;-85
2021/01/28 07:42:07;;;;;;;0.73;0.73;;;3.20;99.90;;;;;;4944020;28;20296;-86
2021/01/28 07:44:33;;;;;;;2.47;0.83;;;3.20;99.90;;;;;;4973801;28;20221;-88
2021/01/28 07:46:59;;;;;;;1.80;1.13;;;3.20;99.90;;;;;;4935510;28;20698;-85
2021/01/28 07:49:33;;;;;;;1.53;1.30;;;3.30;99.90;;;;;;4959280;28;20186;-85
2021/01/28 07:52:02;;;;;;;0.70;0.63;;;3.30;99.90;;;;;;4944205;29;20236;-87
2021/01/28 07:54:27;;;;;;;0.83;0.83;;;3.30;99.90;;;;;;4942618;28;20233;-90
2021/01/28 07:57:12;;;;;;;1.27;1.03;;;3.40;99.90;;;;;;4942982;28;20224;-86
2021/01/28 08:00:07;;;;;;;0.50;0.50;;;3.40;99.90;;;;;;4937763;28;20248;-86
2021/01/28 08:02:36;;;;;;;0.23;0.23;;;3.50;99.90;;;;;;4954613;28;20272;-84
2021/01/28 08:05:04;;;;;;;3.07;2.03;;;3.50;99.90;;;;;;4939668;29;20322;-85
2021/01/28 08:07:34;;;;;;;2.03;1.93;;;3.60;99.90;;;;;;4957570;28;20315;-85
2021/01/28 08:10:20;;;;;;;0.80;0.80;;;3.70;99.90;;;;;;4958401;28;20186;-85
2021/01/28 08:12:55;;;;;;;1.70;0.97;;;3.70;99.90;;;;;;4957962;28;20237;-87
2021/01/28 08:15:39;;;;;;;0.70;0.70;;;3.80;99.90;;;;;;4958417;28;20750;-84
2021/01/28 08:18:27;;;;;;;1.00;1.00;;;3.80;99.90;;;;;;4942706;29;20223;-86
2021/01/28 08:21:11;;;;;;;0.50;0.50;;;3.80;99.90;;;;;;4942126;28;20229;-85
2021/01/28 08:23:39;;;;;;;1.00;1.00;;;3.90;99.90;;;;;;4943201;28;20209;-85
2021/01/28 08:26:11;;;;;;;1.53;1.27;;;3.90;99.90;;;;;;4942028;29;20220;-85
2021/01/28 08:28:40;;;;;;;0.83;0.83;;;3.90;99.90;;;;;;4958980;28;20225;-86
2021/01/28 08:31:22;;;;;;;1.27;1.17;;;3.90;99.90;;;;;;4942713;28;20285;-86
2021/01/28 08:33:59;;;;;;;0.53;0.53;;;3.90;99.90;;;;;;4944758;28;20296;-91
2021/01/28 08:36:54;;;;;;;1.27;1.17;;;3.90;99.90;;;;;;4958562;28;20248;-92
2021/01/28 08:39:28;;;;;;;1.03;1.03;;;4.00;99.90;;;;;;4957992;28;20225;-89
2021/01/28 08:42:09;;;;;;;3.47;1.87;;;4.00;99.90;;;;;;4957487;28;20225;-87
2021/01/28 08:44:35;;;;;;;0.77;0.77;;;4.00;99.90;;;;;;4958419;28;20242;-91
2021/01/28 08:47:04;;;;;;;1.03;0.93;;;3.90;99.90;;;;;;4940907;28;20228;-88
2021/01/28 08:49:30;;;;;;;1.53;1.43;;;4.00;99.90;;;;;;4957863;28;20237;-88
2021/01/28 08:52:07;;;;;;;0.90;0.90;;;4.00;99.90;;;;;;4943608;28;20225;-88
2021/01/28 08:54:38;;;;;;;1.50;0.47;;;4.00;99.90;;;;;;4942245;28;20224;-89
2021/01/28 08:57:06;;;;;;;4.37;1.50;;;4.00;99.90;;;;;;4941321;28;20217;-90
2021/01/28 08:59:41;;;;;;;0.67;0.67;;;4.00;99.90;;;;;;4956472;28;20302;-92
2021/01/28 09:02:12;;;;;;;1.17;0.70;;;4.00;99.90;;;;;;4962286;28;20215;-89
2021/01/28 09:04:44;;;;;;;2.13;2.00;;;4.00;99.90;;;;;;4978020;28;20216;-91
2021/01/28 09:07:30;;;;;;;4.97;1.60;;;4.00;99.90;;;;;;4961822;28;20181;-88
2021/01/28 09:10:04;;;;;;;0.97;0.97;;;4.10;99.90;;;;;;4961315;28;20200;-87
2021/01/28 09:12:32;;;;;;;0.80;0.80;;;4.10;99.90;;;;;;4960504;28;20505;-88
2021/01/28 09:15:22;;;;;;;1.07;0.67;;;4.10;99.90;;;;;;4961138;28;20227;-90
2021/01/28 09:17:48;;;;;;;1.17;0.70;;;4.10;99.90;;;;;;4960654;28;20216;-88
2021/01/28 09:20:33;;;;;;;1.27;0.93;;;4.10;99.90;;;;;;4960898;28;20216;-87
2021/01/28 09:23:13;;;;;;;1.33;1.33;;;4.10;99.90;;;;;;4960909;28;20239;-88
2021/01/28 09:25:39;;;;;;;0.93;0.93;;;4.10;99.90;;;;;;4961192;28;20247;-88
2021/01/28 09:28:21;;;;;;;0.90;0.83;;;4.20;99.90;;;;;;4944603;28;20204;-84
2021/01/28 09:30:50;;;;;;;0.80;0.77;;;4.20;99.90;;;;;;4962083;28;20197;-90
2021/01/28 09:33:36;;;;;;;0.43;0.43;;;4.20;99.90;;;;;;4976763;28;20248;-87
2021/01/28 09:36:22;;;;;;;4.40;1.27;;;4.20;99.90;;;;;;4976668;28;20212;-92
2021/01/28 09:39:06;;;;;;;0.47;0.13;;;4.20;99.90;;;;;;4961764;28;20235;-89
2021/01/28 09:41:45;;;;;;;0.97;0.53;;;4.20;99.90;;;;;;4961528;28;20228;-88
2021/01/28 09:44:30;;;;;;;3.90;1.43;;;4.20;99.90;;;;;;4960504;28;20233;-87
2021/01/28 09:47:22;;;;;;;2.00;1.73;;;4.20;99.90;;;;;;4961594;28;20589;-89
2021/01/28 09:49:52;;;;;;;0.73;0.73;;;4.20;99.90;;;;;;4959916;28;20575;-86
2021/01/28 09:52:28;;;;;;;0.67;0.67;;;4.20;99.90;;;;;;4960429;28;20217;-88
2021/01/28 09:55:00;;;;;;;0.73;0.73;;;4.20;99.90;;;;;;4963365;28;20192;-90
2021/01/28 09:57:27;;;;;;;0.57;0.50;;;4.10;99.90;;;;;;4960432;28;20670;-91
2021/01/28 09:59:54;;;;;;;1.10;1.10;;;4.20;99.90;;;;;;4943381;28;20244;-89
2021/01/28 10:02:46;;;;;;;0.67;0.67;;;4.10;99.90;;;;;;4940754;29;20248;-87
2021/01/28 10:05:15;;;;;;;0.97;0.97;;;4.10;99.90;;;;;;4947285;28;20283;-88
2021/01/28 10:07:41;;;;;;;2.97;1.00;;;4.10;99.90;;;;;;4942952;28;20240;-89
2021/01/28 10:10:08;;;;;;;0.53;0.53;;;4.10;99.90;;;;;;4928684;28;22037;-86
2021/01/28 10:12:33;;;;;;;2.23;1.63;;;4.20;99.90;;;;;;4945742;29;20212;-85
2021/01/28 10:14:59;;;;;;;0.47;0.47;;;4.10;99.90;;;;;;4929152;29;20236;-88
2021/01/28 10:17:25;;;;;;;0.60;0.57;;;4.10;99.90;;;;;;4929121;29;20213;-89
2021/01/28 10:19:51;;;;;;;2.07;1.90;;;4.10;99.90;;;;;;4927378;29;20596;-89
2021/01/28 10:22:19;;;;;;;1.30;1.20;;;4.20;99.90;;;;;;4928725;28;20210;-88
2021/01/28 10:24:45;;;;;;;0.67;0.63;;;4.10;99.90;;;;;;4947732;29;20331;-88
2021/01/28 10:27:12;;;;;;;2.90;1.27;;;4.10;99.90;;;;;;4944455;28;20718;-89
2021/01/28 10:29:40;;;;;;;1.57;1.37;;;4.10;99.90;;;;;;4960923;28;20223;-87
2021/01/28 10:32:08;;;;;;;1.97;1.77;;;4.20;99.90;;;;;;4945089;28;21417;-87
2021/01/28 10:34:35;;;;;;;4.43;2.07;;;4.10;99.90;;;;;;4942741;29;20225;-87
2021/01/28 10:37:02;;;;;;;1.27;1.17;;;4.10;99.90;;;;;;4945033;29;20240;-88
2021/01/28 10:39:27;;;;;;;0.83;0.83;;;4.10;99.90;;;;;;4928773;29;20217;-87
2021/01/28 10:41:54;;;;;;;1.17;1.07;;;4.10;99.90;;;;;;4944356;29;20768;-88
2021/01/28 10:44:20;;;;;;;1.20;1.10;;;4.00;99.90;;;;;;4928266;29;20292;-89
2021/01/28 10:46:47;;;;;;;0.97;0.97;;;4.00;99.90;;;;;;4927064;29;20272;-86
2021/01/28 10:49:13;;;;;;;1.80;0.90;;;3.90;99.90;;;;;;4942530;28;20194;-86
2021/01/28 10:51:39;;;;;;;1.30;1.23;;;3.90;99.90;;;;;;4945184;29;20205;-87
2021/01/28 10:54:05;;;;;;;9.60;2.00;;;3.90;99.90;;;;;;4945220;28;20217;-87
2021/01/28 10:56:30;;;;;;;0.70;0.70;;;3.90;99.90;;;;;;4945501;28;20225;-88
2021/01/28 10:58:56;;;;;;;2.67;1.27;;;3.90;99.90;;;;;;4954046;28;20254;-87
2021/01/28 11:01:22;;;;;;;1.07;1.03;;;3.80;99.90;;;;;;4946708;28;20295;-87
2021/01/28 11:03:48;;;;;;;1.57;1.37;;;3.90;99.90;;;;;;4965240;28;20530;-87
2021/01/28 11:06:14;;;;;;;2.57;1.63;;;3.90;99.90;;;;;;4963127;28;20286;-88
2021/01/28 11:08:40;;;;;;;1.83;1.73;;;3.80;99.90;;;;;;4979111;28;20225;-87
2021/01/28 11:11:07;;;;;;;4.93;1.43;;;3.80;99.90;;;;;;4962274;28;20232;-87
2021/01/28 11:13:32;;;;;;;1.40;1.30;;;3.80;99.90;;;;;;4962701;28;20220;-88
2021/01/28 11:15:58;;;;;;;1.37;1.27;;;3.80;99.90;;;;;;4964211;28;20259;-89
2021/01/28 11:18:24;;;;;;;1.73;0.80;;;3.80;99.90;;;;;;4961929;28;20216;-87
2021/01/28 11:20:50;;;;;;;0.23;0.23;;;3.70;99.90;;;;;;4946646;28;21091;-88
2021/01/28 11:23:16;;;;;;;1.60;0.80;;;3.60;99.90;;;;;;4962671;28;20249;-87
2021/01/28 11:25:41;;;;;;;0.40;0.40;;;3.40;99.90;;;;;;4963004;28;20219;-88
2021/01/28 11:28:07;;;;;;;1.67;1.37;;;3.40;99.90;;;;;;4964058;28;20327;-87
2021/01/28 11:30:35;;;;;;;0.90;0.90;;;3.30;99.90;;;;;;4979098;28;20311;-91
2021/01/28 11:33:02;;;;;;;0.43;0.43;;;3.20;99.90;;;;;;4963096;28;20231;-88
2021/01/28 11:35:31;;;;;;;1.10;1.10;;;3.20;99.90;;;;;;4963306;28;20216;-90
2021/01/28 11:38:01;;;;;;;0.43;0.43;;;3.10;99.90;;;;;;4962532;28;20227;-88
2021/01/28 11:40:29;;;;;;;1.53;0.77;;;3.10;99.90;;;;;;4963064;28;20220;-88
2021/01/28 11:42:55;;;;;;;0.63;0.63;;;3.10;99.90;;;;;;4963743;28;20193;-90
2021/01/28 11:45:24;;;;;;;0.30;0.30;;;3.00;99.90;;;;;;4963238;28;20220;-91
2021/01/28 11:47:50;;;;;;;0.40;0.40;;;3.00;99.90;;;;;;4963020;28;20255;-89
2021/01/28 11:50:17;;;;;;;0.50;0.50;;;2.90;99.90;;;;;;4962585;28;20828;-89
2021/01/28 11:52:43;;;;;;;0.40;0.40;;;2.80;99.90;;;;;;4962939;28;20232;-91
2021/01/28 11:55:12;;;;;;;0.90;0.90;;;2.80;99.90;;;;;;4961043;28;20203;-90
2021/01/28 11:57:38;;;;;;;2.00;0.70;;;2.70;99.90;;;;;;4981179;28;20480;-90
2021/01/28 12:00:06;;;;;;;0.97;0.97;;;2.60;99.90;;;;;;4943204;28;20299;-89
2021/01/28 12:02:32;;;;;;;0.20;0.20;;;2.60;99.90;;;;;;4927648;29;20757;-89
2021/01/28 12:04:58;;;;;;;0.40;0.40;;;2.60;99.90;;;;;;4943227;29;20320;-88
2021/01/28 12:07:23;;;;;;;0.60;0.60;;;2.40;99.90;;;;;;4927497;28;20206;-89
2021/01/28 12:09:49;;;;;;;0.33;0.27;;;2.40;99.90;;;;;;4926741;29;20256;-89
2021/01/28 12:12:15;;;;;;;0.40;0.40;;;2.40;99.90;;;;;;4927628;29;20700;-89
2021/01/28 12:14:40;;;;;;;1.03;0.93;;;2.40;99.90;;;;;;4927766;29;20245;-89
2021/01/28 12:17:06;;;;;;;0.10;0.10;;;2.40;99.90;;;;;;4942321;29;20216;-89
2021/01/28 12:19:32;;;;;;;0.43;0.43;;;2.40;99.90;;;;;;4926530;29;20304;-88
2021/01/28 12:21:58;;;;;;;0.57;0.43;;;2.40;99.90;;;;;;4927504;29;20593;-89
2021/01/28 12:24:24;;;;;;;0.63;0.57;;;2.40;99.90;;;;;;4927845;29;20231;-90
2021/01/28 12:26:50;;;;;;;0.97;0.83;;;2.50;99.90;;;;;;4943352;29;21235;-87
2021/01/28 12:29:16;;;;;;;0.83;0.50;;;2.40;99.90;;;;;;4943941;28;20284;-87
2021/01/28 12:31:42;;;;;;;0.57;0.57;;;2.30;99.90;;;;;;4925232;29;20265;-87
2021/01/28 12:34:08;;;;;;;0.40;0.40;;;2.30;99.90;;;;;;4942527;28;20231;-89
2021/01/28 12:36:34;;;;;;;1.20;1.00;;;2.30;99.90;;;;;;4928211;29;20565;-88
2021/01/28 12:38:59;;;;;;;1.93;1.07;;;2.30;99.90;;;;;;4926019;29;20376;-88
2021/01/28 12:41:25;;;;;;;0.20;0.20;;;2.30;99.90;;;;;;4940800;29;20635;-87
2021/01/28 12:43:51;;;;;;;0.10;0.10;;;2.40;99.90;;;;;;4923719;29;21111;-87
2021/01/28 12:46:16;;;;;;;0.20;0.20;;;2.40;99.90;;;;;;4924811;28;20193;-88
2021/01/28 12:48:42;;;;;;;0.73;0.73;;;2.40;99.90;;;;;;4942426;29;20244;-88
2021/01/28 12:51:08;;;;;;;0.30;0.30;;;2.50;99.90;;;;;;4926075;29;20243;-88
2021/01/28 12:53:34;;;;;;;0.70;0.70;;;2.50;99.90;;;;;;4926379;28;20632;-86
2021/01/28 12:56:00;;;;;;;1.70;1.07;;;2.50;99.90;;;;;;4942636;29;20240;-88
2021/01/28 12:58:26;;;;;;;0.60;0.60;;;2.40;99.90;;;;;;4936447;28;20243;-86
2021/01/28 13:00:51;;;;;;;0.53;0.53;;;2.60;99.90;;;;;;4964387;28;20200;-87
2021/01/28 13:03:17;;;;;;;0.33;0.33;;;2.60;99.90;;;;;;4947837;28;20267;-86
2021/01/28 13:05:43;;;;;;;0.20;0.20;;;2.50;99.90;;;;;;4945069;28;20219;-87
2021/01/28 13:08:08;;;;;;;0.30;0.30;;;2.60;99.90;;;;;;4943796;28;20693;-86
2021/01/28 13:10:34;;;;;;;1.27;1.17;;;2.50;99.90;;;;;;4945994;28;20223;-85
2021/01/28 13:13:00;;;;;;;0.80;0.80;;;2.40;99.90;;;;;;4947769;28;20196;-86
2021/01/28 13:15:27;;;;;;;0.30;0.30;;;2.50;99.90;;;;;;4947293;28;20299;-86
2021/01/28 13:17:53;;;;;;;0.90;0.90;;;2.40;99.90;;;;;;4963489;28;20322;-86